Time;durP1;ratioP1;P1;durP2;ratioP2;P2;SDS_P1;SDS_P2;PMS_P1;PMS_P2;Temp;Humidity;BMP_temperature;BMP_pressure;BME280_temperature;BME280_humidity;BME280_pressure;Samples;Min_cycle;Max_cycle;Signal;HPM_P1;HPM_P2
2022/01/22 00:00:18;;;;;;;28.20;9.20;;;;;;;;;;5076081;28;20075;-93
2022/01/22 00:02:43;;;;;;;23.33;8.93;;;;;;;;;;5077047;28;20059;-92
2022/01/22 00:05:10;;;;;;;19.27;8.23;;;;;;;;;;5076368;28;20383;-92
2022/01/22 00:07:35;;;;;;;19.90;8.00;;;;;;;;;;5077139;28;20075;-93
2022/01/22 00:10:06;;;;;;;17.70;7.90;;;;;;;;;;5076053;28;20016;-92
2022/01/22 00:15:06;;;;;;;21.47;9.03;;;;;;;;;;5077286;28;20028;-92
2022/01/22 00:17:32;;;;;;;25.03;8.13;;;;;;;;;;5075677;28;20490;-93
2022/01/22 00:19:57;;;;;;;21.07;8.47;;;;;;;;;;5075517;28;20029;-93
2022/01/22 00:22:26;;;;;;;17.80;8.07;;;;;;;;;;5075565;28;20027;-93
2022/01/22 00:24:56;;;;;;;28.80;8.90;;;;;;;;;;5075373;28;20021;-92
2022/01/22 00:27:22;;;;;;;25.20;8.40;;;;;;;;;;5075011;28;20464;-92
2022/01/22 00:29:47;;;;;;;26.70;10.17;;;;;;;;;;5066383;28;20035;-92
2022/01/22 00:32:12;;;;;;;22.57;8.73;;;;;;;;;;5054633;28;20028;-93
2022/01/22 00:34:37;;;;;;;31.77;8.60;;;;;;;;;;5054911;28;20025;-92
2022/01/22 00:37:03;;;;;;;22.33;9.23;;;;;;;;;;5055017;28;20415;-92
2022/01/22 00:39:29;;;;;;;31.63;8.47;;;;;;;;;;5054713;28;20059;-92
2022/01/22 00:41:54;;;;;;;29.10;9.50;;;;;;;;;;5054831;28;20025;-92
2022/01/22 00:44:19;;;;;;;26.77;8.00;;;;;;;;;;5074588;28;20111;-92
2022/01/22 00:46:45;;;;;;;24.50;8.77;;;;;;;;;;5075621;28;20456;-92
2022/01/22 00:49:10;;;;;;;22.03;8.50;;;;;;;;;;5074386;28;20023;-92
2022/01/22 00:51:35;;;;;;;16.97;7.90;;;;;;;;;;5073862;28;20112;-92
2022/01/22 00:54:01;;;;;;;25.63;8.40;;;;;;;;;;5074433;28;20013;-92
2022/01/22 00:56:26;;;;;;;18.53;8.27;;;;;;;;;;5074338;28;20382;-93
2022/01/22 00:58:51;;;;;;;16.77;7.90;;;;;;;;;;5074181;28;20035;-92
2022/01/22 01:01:17;;;;;;;21.90;8.80;;;;;;;;;;5074445;28;20024;-92
2022/01/22 01:03:42;;;;;;;18.73;7.90;;;;;;;;;;5073934;28;20063;-92
2022/01/22 01:06:07;;;;;;;27.40;8.87;;;;;;;;;;5074020;28;20119;-92
2022/01/22 01:08:34;;;;;;;17.00;7.60;;;;;;;;;;5074908;28;20020;-92
2022/01/22 01:11:00;;;;;;;19.67;7.90;;;;;;;;;;5073652;28;20365;-92
2022/01/22 01:13:27;;;;;;;21.17;8.23;;;;;;;;;;5073804;28;20020;-92
2022/01/22 01:16:01;;;;;;;23.20;8.70;;;;;;;;;;5073839;28;20021;-93
2022/01/22 01:34:40;;;;;;;18.83;7.97;;;;;;;;;;5055227;28;20027;-92
2022/01/22 01:37:05;;;;;;;18.43;8.27;;;;;;;;;;5053540;28;20488;-92
2022/01/22 01:39:33;;;;;;;19.07;8.63;;;;;;;;;;5053431;28;20104;-92
2022/01/22 01:42:15;;;;;;;20.73;7.97;;;;;;;;;;5053097;28;20044;-92
2022/01/22 01:44:41;;;;;;;20.77;8.02;;;;;;;;;;5053726;28;20074;-92
2022/01/22 01:47:08;;;;;;;22.93;8.50;;;;;;;;;;5053368;28;20380;-93
2022/01/22 01:49:34;;;;;;;19.63;8.60;;;;;;;;;;5053251;28;20482;-93
2022/01/22 01:52:02;;;;;;;20.00;8.07;;;;;;;;;;5053667;28;20017;-93
2022/01/22 01:59:42;;;;;;;22.40;8.77;;;;;;;;;;5054871;28;20483;-93
2022/01/22 02:02:08;;;;;;;19.30;8.20;;;;;;;;;;5053116;28;20104;-92
2022/01/22 02:04:33;;;;;;;22.57;9.13;;;;;;;;;;5063577;28;20048;-92
2022/01/22 02:06:58;;;;;;;20.90;8.33;;;;;;;;;;5073133;28;20376;-93
2022/01/22 02:09:24;;;;;;;22.63;9.40;;;;;;;;;;5073098;28;20109;-92
2022/01/22 02:12:00;;;;;;;22.73;9.20;;;;;;;;;;5072921;28;20032;-93
2022/01/22 02:25:15;;;;;;;26.60;9.23;;;;;;;;;;5074042;28;20073;-92
2022/01/22 02:27:41;;;;;;;24.07;8.73;;;;;;;;;;5072889;28;20029;-93
2022/01/22 02:30:06;;;;;;;19.97;9.57;;;;;;;;;;5072904;28;20016;-92
2022/01/22 02:35:29;;;;;;;25.57;9.33;;;;;;;;;;5074442;28;20095;-92
2022/01/22 02:38:03;;;;;;;17.53;8.60;;;;;;;;;;5072906;28;20384;-92
2022/01/22 02:40:44;;;;;;;22.40;9.80;;;;;;;;;;5073432;28;20032;-92
2022/01/22 02:43:11;;;;;;;23.57;9.90;;;;;;;;;;5072911;28;20033;-93
2022/01/22 02:45:36;;;;;;;20.57;9.27;;;;;;;;;;5072761;28;20423;-92
2022/01/22 02:48:01;;;;;;;26.73;10.23;;;;;;;;;;5072708;28;20017;-93
2022/01/22 02:50:27;;;;;;;19.77;9.10;;;;;;;;;;5072766;28;20016;-93
2022/01/22 02:52:52;;;;;;;19.60;9.80;;;;;;;;;;5072369;28;20039;-92
2022/01/22 02:55:17;;;;;;;20.70;9.83;;;;;;;;;;5075616;28;20515;-93
2022/01/22 02:57:44;;;;;;;24.67;9.73;;;;;;;;;;5076245;28;20031;-93
2022/01/22 03:00:11;;;;;;;21.30;9.47;;;;;;;;;;5076257;28;20059;-93
2022/01/22 03:02:37;;;;;;;25.17;9.93;;;;;;;;;;5076242;28;20059;-93
2022/01/22 03:05:03;;;;;;;29.37;10.30;;;;;;;;;;5075826;28;20025;-92
2022/01/22 03:07:28;;;;;;;22.83;10.43;;;;;;;;;;5076122;28;20077;-93
2022/01/22 03:10:00;;;;;;;26.33;9.50;;;;;;;;;;5076114;28;20016;-92
2022/01/22 03:27:50;;;;;;;23.50;10.87;;;;;;;;;;5076926;28;20028;-92
2022/01/22 03:30:15;;;;;;;21.47;10.70;;;;;;;;;;5075807;28;20013;-92
2022/01/22 03:32:44;;;;;;;27.63;10.37;;;;;;;;;;5076770;28;20369;-93
2022/01/22 03:35:25;;;;;;;23.20;10.83;;;;;;;;;;5071844;28;20025;-93
2022/01/22 03:37:52;;;;;;;24.77;11.47;;;;;;;;;;5072278;28;20025;-92
2022/01/22 03:40:25;;;;;;;25.60;13.00;;;;;;;;;;5072242;28;20036;-92
2022/01/22 03:42:51;;;;;;;28.45;12.75;;;;;;;;;;5074010;28;20039;-93
2022/01/22 03:45:17;;;;;;;22.83;12.17;;;;;;;;;;5076558;28;20089;-92
2022/01/22 03:47:42;;;;;;;23.87;11.93;;;;;;;;;;5075422;28;20024;-92
2022/01/22 03:50:09;;;;;;;27.23;12.13;;;;;;;;;;5075378;28;20017;-92
2022/01/22 03:52:34;;;;;;;25.50;12.80;;;;;;;;;;5075497;28;20029;-93
2022/01/22 03:55:00;;;;;;;26.77;12.80;;;;;;;;;;5075282;28;20025;-92
2022/01/22 03:57:25;;;;;;;25.37;13.20;;;;;;;;;;5075759;28;20361;-93
2022/01/22 03:59:52;;;;;;;23.43;12.60;;;;;;;;;;5076305;28;20025;-93
2022/01/22 04:03:03;;;;;;;27.50;13.13;;;;;;;;;;5075313;28;20028;-92
2022/01/22 04:05:18;;;;;;;32.03;12.87;;;;;;;;;;5075265;28;20480;-93
2022/01/22 04:10:10;;;;;;;29.27;12.43;;;;;;;;;;5076364;28;20063;-93
2022/01/22 04:13:12;;;;;;;26.10;13.37;;;;;;;;;;5074959;28;20077;-93
2022/01/22 04:15:30;;;;;;;27.42;12.73;;;;;;;;;;5073390;28;20033;-92
2022/01/22 04:26:20;;;;;;;27.23;13.83;;;;;;;;;;5076386;28;20086;-92
2022/01/22 04:28:45;;;;;;;22.03;12.47;;;;;;;;;;5074502;28;20016;-93
2022/01/22 04:31:10;;;;;;;34.13;14.30;;;;;;;;;;5074589;28;20066;-92
2022/01/22 04:33:35;;;;;;;33.17;14.43;;;;;;;;;;5074589;28;20456;-93
2022/01/22 04:36:00;;;;;;;27.07;14.97;;;;;;;;;;5074554;28;20013;-93
2022/01/22 04:38:26;;;;;;;32.33;14.00;;;;;;;;;;5074586;28;20025;-92
2022/01/22 04:40:51;;;;;;;34.17;15.97;;;;;;;;;;5074404;28;20406;-93
2022/01/22 04:43:16;;;;;;;33.83;14.17;;;;;;;;;;5074320;28;20020;-92
2022/01/22 04:48:25;;;;;;;37.87;16.77;;;;;;;;;;5075663;28;20032;-92
2022/01/22 04:56:18;;;;;;;38.53;16.40;;;;;;;;;;5075832;28;20234;-92
2022/01/22 04:58:43;;;;;;;32.60;16.00;;;;;;;;;;5074830;28;20070;-93
2022/01/22 05:01:08;;;;;;;30.20;15.83;;;;;;;;;;5069183;28;20041;-93
2022/01/22 05:03:34;;;;;;;32.80;16.07;;;;;;;;;;5054054;28;20027;-93
2022/01/22 05:06:00;;;;;;;34.77;17.03;;;;;;;;;;5054187;28;20104;-92
2022/01/22 05:08:25;;;;;;;36.20;17.67;;;;;;;;;;5053996;28;20485;-92
2022/01/22 05:10:51;;;;;;;36.57;18.57;;;;;;;;;;5054131;28;20013;-92
2022/01/22 05:13:16;;;;;;;35.43;16.87;;;;;;;;;;5054771;28;20017;-92
2022/01/22 05:15:41;;;;;;;36.03;17.30;;;;;;;;;;5073864;28;20021;-92
2022/01/22 05:18:08;;;;;;;38.37;16.70;;;;;;;;;;5072942;28;20020;-92
2022/01/22 05:20:42;;;;;;;33.73;16.40;;;;;;;;;;5073821;28;20033;-92
2022/01/22 05:23:13;;;;;;;34.53;16.60;;;;;;;;;;5073786;28;20020;-93
2022/01/22 05:25:48;;;;;;;33.83;17.43;;;;;;;;;;5073999;28;20028;-93
2022/01/22 05:38:20;;;;;;;35.40;17.07;;;;;;;;;;5075367;28;20498;-92
2022/01/22 05:40:45;;;;;;;38.83;17.33;;;;;;;;;;5073811;28;20020;-92
2022/01/22 05:43:10;;;;;;;34.20;17.40;;;;;;;;;;5073765;28;20021;-93
2022/01/22 05:45:35;;;;;;;39.50;18.87;;;;;;;;;;5073667;28;20025;-93
2022/01/22 05:48:01;;;;;;;37.80;18.03;;;;;;;;;;5073709;28;20047;-92
2022/01/22 05:50:36;;;;;;;39.67;17.93;;;;;;;;;;5073563;28;20013;-93
2022/01/22 05:53:09;;;;;;;36.07;17.67;;;;;;;;;;5073515;28;20024;-92
2022/01/22 06:01:02;;;;;;;40.30;19.27;;;;;;;;;;5074697;28;20043;-92
2022/01/22 06:03:27;;;;;;;41.70;19.23;;;;;;;;;;5073667;28;20052;-92
2022/01/22 06:05:52;;;;;;;40.70;18.53;;;;;;;;;;5073448;28;20036;-93
2022/01/22 06:08:18;;;;;;;36.47;18.50;;;;;;;;;;5073175;28;20082;-92
2022/01/22 06:10:46;;;;;;;40.10;18.93;;;;;;;;;;5073407;28;20396;-93
2022/01/22 06:13:15;;;;;;;41.63;19.70;;;;;;;;;;5073354;28;20024;-93
2022/01/22 06:15:41;;;;;;;38.17;18.40;;;;;;;;;;5073422;28;20020;-92
2022/01/22 06:18:06;;;;;;;37.80;18.37;;;;;;;;;;5073377;28;20026;-93
2022/01/22 06:20:32;;;;;;;44.60;19.67;;;;;;;;;;5073390;28;20036;-92
2022/01/22 06:22:57;;;;;;;38.10;18.57;;;;;;;;;;5073301;28;20028;-92
2022/01/22 06:25:22;;;;;;;46.33;21.10;;;;;;;;;;5072703;28;20111;-92
2022/01/22 06:27:47;;;;;;;40.73;19.27;;;;;;;;;;5073224;28;20035;-92
2022/01/22 06:30:13;;;;;;;38.83;18.17;;;;;;;;;;5076184;28;20028;-92
2022/01/22 06:32:38;;;;;;;45.77;20.30;;;;;;;;;;5077270;28;20047;-92
2022/01/22 06:35:03;;;;;;;42.60;20.03;;;;;;;;;;5077754;28;20441;-92
2022/01/22 06:37:28;;;;;;;46.73;20.87;;;;;;;;;;5077206;28;20427;-92
2022/01/22 06:42:32;;;;;;;39.60;19.33;;;;;;;;;;5078793;28;20028;-92
2022/01/22 06:44:57;;;;;;;39.33;21.10;;;;;;;;;;5076972;28;20472;-92
2022/01/22 06:47:23;;;;;;;40.80;19.63;;;;;;;;;;5076976;28;20081;-92
2022/01/22 06:49:48;;;;;;;42.77;19.53;;;;;;;;;;5078010;28;20021;-92
2022/01/22 06:52:13;;;;;;;43.53;20.73;;;;;;;;;;5068489;28;20012;-93
2022/01/22 06:54:39;;;;;;;42.27;20.30;;;;;;;;;;5076830;28;20024;-92
2022/01/22 06:57:04;;;;;;;44.93;21.77;;;;;;;;;;5076821;28;20016;-93
2022/01/22 06:59:30;;;;;;;43.77;20.13;;;;;;;;;;5077287;28;20100;-92
2022/01/22 07:01:56;;;;;;;41.93;19.50;;;;;;;;;;5067222;28;20020;-92
2022/01/22 07:04:21;;;;;;;44.10;19.07;;;;;;;;;;5056121;28;20070;-93
2022/01/22 07:06:47;;;;;;;39.57;19.40;;;;;;;;;;5056164;28;20656;-92
2022/01/22 07:09:12;;;;;;;47.33;23.80;;;;;;;;;;5070400;28;20026;-91
2022/01/22 07:11:37;;;;;;;39.87;19.50;;;;;;;;;;5075951;28;20017;-92
2022/01/22 07:14:03;;;;;;;45.53;21.77;;;;;;;;;;5076077;28;20396;-92
2022/01/22 07:16:28;;;;;;;46.40;21.10;;;;;;;;;;5075942;28;20108;-93
2022/01/22 07:18:59;;;;;;;38.37;19.33;;;;;;;;;;5075744;28;20023;-93
2022/01/22 07:21:24;;;;;;;49.60;20.97;;;;;;;;;;5064238;28;20028;-93
2022/01/22 07:26:15;;;;;;;40.97;18.60;;;;;;;;;;5077170;28;20524;-93
2022/01/22 07:28:40;;;;;;;39.10;19.73;;;;;;;;;;5075576;28;20028;-93
2022/01/22 07:31:06;;;;;;;41.93;20.43;;;;;;;;;;5076963;28;20012;-93
2022/01/22 07:33:31;;;;;;;44.23;20.03;;;;;;;;;;5075382;28;20025;-92
2022/01/22 07:35:57;;;;;;;43.37;20.63;;;;;;;;;;5065253;28;20166;-93
2022/01/22 07:38:22;;;;;;;40.13;20.03;;;;;;;;;;5076694;28;20043;-92
2022/01/22 07:40:48;;;;;;;43.97;20.57;;;;;;;;;;5074249;28;20475;-93
2022/01/22 07:43:16;;;;;;;45.50;21.13;;;;;;;;;;5061980;28;20029;-93
2022/01/22 07:45:41;;;;;;;46.70;20.87;;;;;;;;;;5056900;28;20025;-93
2022/01/22 07:48:07;;;;;;;48.27;19.93;;;;;;;;;;5057014;28;20021;-94
2022/01/22 07:50:32;;;;;;;46.70;20.37;;;;;;;;;;5056599;28;20112;-94
2022/01/22 07:52:57;;;;;;;48.33;21.03;;;;;;;;;;5055656;28;20028;-93
2022/01/22 07:55:23;;;;;;;42.27;20.13;;;;;;;;;;5073210;28;20059;-93
2022/01/22 07:57:48;;;;;;;46.33;21.33;;;;;;;;;;5076135;28;20020;-92
2022/01/22 08:00:16;;;;;;;47.57;21.00;;;;;;;;;;5076085;28;20097;-93
2022/01/22 08:02:41;;;;;;;44.27;20.83;;;;;;;;;;5076111;28;20020;-93
2022/01/22 08:05:06;;;;;;;44.90;21.13;;;;;;;;;;5061004;28;20484;-94
2022/01/22 08:07:32;;;;;;;48.43;22.27;;;;;;;;;;5055583;28;20032;-93
2022/01/22 08:09:58;;;;;;;51.13;21.90;;;;;;;;;;5055040;28;20024;-93
2022/01/22 08:12:23;;;;;;;56.30;22.00;;;;;;;;;;5055147;28;20453;-94
2022/01/22 08:14:48;;;;;;;45.73;19.77;;;;;;;;;;5055117;28;20017;-93
2022/01/22 08:17:13;;;;;;;44.03;21.07;;;;;;;;;;5054992;28;20025;-93
2022/01/22 08:19:38;;;;;;;49.70;22.07;;;;;;;;;;5054691;28;20439;-92
2022/01/22 08:22:04;;;;;;;47.90;21.47;;;;;;;;;;5069766;28;20025;-93
2022/01/22 08:24:29;;;;;;;48.60;22.43;;;;;;;;;;5073690;28;20073;-93
2022/01/22 08:27:14;;;;;;;50.47;22.73;;;;;;;;;;5075794;28;20016;-93
2022/01/22 08:29:39;;;;;;;47.40;21.90;;;;;;;;;;5074942;28;20051;-93
2022/01/22 08:32:23;;;;;;;61.80;22.37;;;;;;;;;;5074513;28;20028;-93
2022/01/22 08:37:32;;;;;;;52.23;22.50;;;;;;;;;;5076117;28;20066;-93
2022/01/22 08:39:57;;;;;;;46.17;21.37;;;;;;;;;;5073438;28;20028;-93
2022/01/22 08:42:24;;;;;;;44.53;22.50;;;;;;;;;;5062790;28;20488;-93
2022/01/22 08:44:49;;;;;;;54.37;22.10;;;;;;;;;;5072262;28;20058;-93
2022/01/22 08:47:14;;;;;;;48.47;21.10;;;;;;;;;;5057735;28;20024;-93
2022/01/22 08:49:40;;;;;;;51.40;22.90;;;;;;;;;;5065908;28;20016;-93
2022/01/22 08:52:12;;;;;;;53.27;23.43;;;;;;;;;;5067771;28;20017;-93
2022/01/22 08:54:38;;;;;;;47.57;22.63;;;;;;;;;;5071434;28;20459;-93
2022/01/22 08:57:04;;;;;;;54.03;21.73;;;;;;;;;;5067035;28;20031;-93
2022/01/22 08:59:29;;;;;;;47.17;21.47;;;;;;;;;;5074022;28;20041;-93
2022/01/22 09:01:54;;;;;;;45.13;22.37;;;;;;;;;;5073696;28;20016;-93
2022/01/22 09:04:19;;;;;;;46.70;22.30;;;;;;;;;;5073828;28;20024;-93
2022/01/22 09:06:45;;;;;;;51.33;23.33;;;;;;;;;;5075015;28;20019;-93
2022/01/22 09:09:11;;;;;;;50.90;21.57;;;;;;;;;;5073818;28;20414;-93
2022/01/22 09:11:37;;;;;;;46.37;21.67;;;;;;;;;;5072264;28;20025;-93
2022/01/22 09:14:04;;;;;;;53.30;24.70;;;;;;;;;;5058747;28;20024;-94
2022/01/22 09:16:29;;;;;;;56.60;24.03;;;;;;;;;;5075405;28;20063;-94
2022/01/22 09:18:58;;;;;;;56.33;23.80;;;;;;;;;;5074755;28;20361;-92
2022/01/22 09:21:23;;;;;;;46.40;20.77;;;;;;;;;;5074609;28;20078;-90
2022/01/22 09:23:48;;;;;;;44.53;22.47;;;;;;;;;;5077171;28;20059;-94
2022/01/22 09:26:13;;;;;;;57.83;23.73;;;;;;;;;;5074693;28;20127;-93
2022/01/22 09:28:39;;;;;;;49.93;22.93;;;;;;;;;;5079713;28;20029;-94
2022/01/22 09:31:04;;;;;;;47.40;22.50;;;;;;;;;;5084143;28;20023;-93
2022/01/22 09:33:29;;;;;;;50.83;23.43;;;;;;;;;;5091895;28;20046;-94
2022/01/22 09:35:55;;;;;;;50.80;23.47;;;;;;;;;;5089743;28;20043;-93
2022/01/22 09:38:20;;;;;;;51.00;23.90;;;;;;;;;;5075012;28;20025;-93
2022/01/22 09:40:46;;;;;;;52.83;21.70;;;;;;;;;;5071973;28;20016;-93
2022/01/22 09:43:11;;;;;;;50.20;23.20;;;;;;;;;;5085067;28;20015;-93
2022/01/22 09:45:37;;;;;;;53.77;23.50;;;;;;;;;;5082751;28;20027;-93
2022/01/22 09:48:02;;;;;;;44.43;22.33;;;;;;;;;;5081582;28;20483;-93
2022/01/22 09:50:29;;;;;;;46.43;20.90;;;;;;;;;;5090026;28;20028;-93
2022/01/22 09:52:54;;;;;;;48.10;22.40;;;;;;;;;;5075275;28;20067;-93
2022/01/22 09:55:21;;;;;;;50.03;22.73;;;;;;;;;;5073687;28;20012;-93
2022/01/22 09:57:46;;;;;;;58.53;23.90;;;;;;;;;;5074570;28;20027;-93
2022/01/22 10:00:13;;;;;;;52.37;23.23;;;;;;;;;;5074241;28;20021;-93
2022/01/22 10:02:42;;;;;;;45.30;22.50;;;;;;;;;;5072203;28;20020;-93
2022/01/22 10:05:26;;;;;;;47.50;23.53;;;;;;;;;;5064319;28;20029;-93
2022/01/22 10:07:53;;;;;;;53.70;22.60;;;;;;;;;;5074242;28;20024;-93
2022/01/22 10:10:18;;;;;;;44.83;22.17;;;;;;;;;;5074291;28;20028;-93
2022/01/22 10:12:45;;;;;;;46.63;22.20;;;;;;;;;;5073853;28;20035;-93
2022/01/22 10:15:15;;;;;;;48.60;24.23;;;;;;;;;;5075909;28;20056;-93
2022/01/22 10:17:42;;;;;;;54.80;22.60;;;;;;;;;;5073472;28;20021;-93
2022/01/22 10:20:23;;;;;;;44.00;21.97;;;;;;;;;;5072913;28;20426;-93
2022/01/22 10:22:49;;;;;;;49.35;23.55;;;;;;;;;;5073033;28;20024;-92
2022/01/22 10:25:23;;;;;;;50.87;22.03;;;;;;;;;;5072949;28;20078;-93
2022/01/22 10:27:58;;;;;;;41.97;20.57;;;;;;;;;;5073053;28;20021;-93
2022/01/22 10:30:33;;;;;;;52.07;22.77;;;;;;;;;;5073055;28;20020;-92
2022/01/22 10:33:06;;;;;;;49.20;23.50;;;;;;;;;;5063033;28;20048;-88
2022/01/22 10:35:32;;;;;;;48.93;21.10;;;;;;;;;;5072885;28;20013;-93
2022/01/22 10:37:58;;;;;;;40.73;21.63;;;;;;;;;;5073086;28;20024;-93
2022/01/22 10:40:27;;;;;;;44.47;20.80;;;;;;;;;;5074650;28;20020;-96
2022/01/22 10:43:09;;;;;;;46.27;21.77;;;;;;;;;;5086330;28;20025;-95
2022/01/22 10:45:39;;;;;;;46.05;20.92;;;;;;;;;;5091701;28;20020;-96
2022/01/22 10:48:20;;;;;;;49.93;22.13;;;;;;;;;;5081185;28;20032;-93
2022/01/22 10:50:58;;;;;;;44.40;21.63;;;;;;;;;;5072020;28;20180;-93
2022/01/22 10:53:33;;;;;;;42.20;19.67;;;;;;;;;;5083430;28;20054;-93
2022/01/22 10:55:58;;;;;;;44.37;21.73;;;;;;;;;;5088072;28;20048;-93
2022/01/22 10:58:24;;;;;;;40.80;21.00;;;;;;;;;;5088007;28;20020;-93
2022/01/22 11:00:57;;;;;;;45.37;20.90;;;;;;;;;;5071580;28;20120;-93
2022/01/22 11:03:23;;;;;;;39.07;20.67;;;;;;;;;;5087087;28;20028;-93
2022/01/22 11:05:48;;;;;;;42.83;21.27;;;;;;;;;;5083821;28;20024;-93
2022/01/22 11:08:14;;;;;;;43.30;23.63;;;;;;;;;;5085359;28;20058;-93
2022/01/22 11:10:45;;;;;;;34.47;15.67;;;;;;;;;;5073711;28;20017;-93
2022/01/22 11:13:11;;;;;;;42.38;20.25;;;;;;;;;;5077495;28;20020;-93
2022/01/22 11:15:38;;;;;;;38.83;20.87;;;;;;;;;;5087138;28;20032;-93
2022/01/22 11:18:04;;;;;;;52.40;21.20;;;;;;;;;;5089427;28;20020;-93
2022/01/22 11:20:31;;;;;;;48.93;20.60;;;;;;;;;;5089868;28;20487;-93
2022/01/22 11:22:57;;;;;;;41.07;22.40;;;;;;;;;;5089425;28;20017;-93
2022/01/22 11:25:23;;;;;;;44.00;24.40;;;;;;;;;;5087859;28;20021;-93
2022/01/22 11:27:49;;;;;;;41.17;19.13;;;;;;;;;;5088396;28;20081;-93
2022/01/22 11:30:15;;;;;;;38.67;20.17;;;;;;;;;;5088799;28;20021;-93
2022/01/22 11:32:46;;;;;;;45.37;21.53;;;;;;;;;;5089938;28;20019;-93
2022/01/22 11:35:12;;;;;;;44.37;19.07;;;;;;;;;;5086283;28;20021;-93
2022/01/22 11:37:56;;;;;;;38.90;19.63;;;;;;;;;;5082833;28;20027;-93
2022/01/22 11:40:22;;;;;;;44.83;20.77;;;;;;;;;;5069537;28;20029;-93
2022/01/22 11:42:55;;;;;;;40.67;17.83;;;;;;;;;;5083916;28;20076;-93
2022/01/22 11:45:52;;;;;;;47.37;20.20;;;;;;;;;;5089441;28;20040;-93
2022/01/22 11:48:21;;;;;;;44.20;21.57;;;;;;;;;;5086237;28;20040;-94
2022/01/22 11:50:50;;;;;;;48.57;20.83;;;;;;;;;;5070729;28;20029;-93
2022/01/22 11:53:29;;;;;;;37.57;20.27;;;;;;;;;;5075056;28;20012;-93
2022/01/22 11:56:09;;;;;;;46.97;20.00;;;;;;;;;;5089511;28;20055;-93
2022/01/22 11:58:53;;;;;;;40.10;19.77;;;;;;;;;;5091167;28;20030;-93
2022/01/22 12:01:37;;;;;;;39.00;20.40;;;;;;;;;;5084790;28;20062;-93
2022/01/22 12:04:03;;;;;;;49.17;22.47;;;;;;;;;;5072963;28;20029;-92
2022/01/22 12:06:28;;;;;;;47.93;22.00;;;;;;;;;;5068114;28;20063;-93
2022/01/22 12:09:15;;;;;;;47.67;25.37;;;;;;;;;;5069345;28;20029;-93
2022/01/22 12:14:44;;;;;;;46.93;21.27;;;;;;;;;;5075318;28;20016;-93
2022/01/22 12:17:14;;;;;;;47.77;23.93;;;;;;;;;;5074069;28;20106;-93
2022/01/22 12:20:06;;;;;;;44.07;19.80;;;;;;;;;;5082801;28;20074;-93
2022/01/22 12:22:45;;;;;;;46.67;21.58;;;;;;;;;;5073857;28;20031;-93
2022/01/22 12:25:14;;;;;;;41.57;19.23;;;;;;;;;;5068023;28;20070;-93
2022/01/22 12:27:47;;;;;;;51.47;23.60;;;;;;;;;;5079458;28;20024;-93
2022/01/22 12:30:13;;;;;;;44.93;21.33;;;;;;;;;;5070969;28;20020;-93
2022/01/22 12:32:45;;;;;;;44.70;22.17;;;;;;;;;;5079245;28;20150;-92
2022/01/22 12:35:14;;;;;;;41.58;20.70;;;;;;;;;;5079066;28;20376;-93
2022/01/22 12:37:42;;;;;;;41.80;19.23;;;;;;;;;;5074356;28;20025;-93
2022/01/22 12:40:09;;;;;;;44.23;21.83;;;;;;;;;;5074739;28;20032;-93
2022/01/22 12:42:47;;;;;;;49.60;21.27;;;;;;;;;;5080410;28;20081;-93
2022/01/22 12:45:13;;;;;;;42.43;20.73;;;;;;;;;;5069094;28;20024;-92
2022/01/22 12:47:44;;;;;;;43.17;20.43;;;;;;;;;;5058616;28;20025;-93
2022/01/22 12:50:10;;;;;;;46.40;19.23;;;;;;;;;;5058281;28;20074;-92
2022/01/22 12:52:37;;;;;;;42.93;19.17;;;;;;;;;;5057425;28;20254;-92
2022/01/22 12:55:14;;;;;;;46.83;21.53;;;;;;;;;;5058061;28;20021;-93
2022/01/22 12:57:42;;;;;;;49.77;22.63;;;;;;;;;;5067991;28;20041;-93
2022/01/22 13:00:20;;;;;;;43.10;19.57;;;;;;;;;;5057801;28;20116;-93
2022/01/22 13:02:56;;;;;;;38.50;19.17;;;;;;;;;;5067951;28;20059;-93
2022/01/22 13:05:23;;;;;;;40.27;19.17;;;;;;;;;;5082497;28;20035;-93
2022/01/22 13:07:53;;;;;;;39.40;18.97;;;;;;;;;;5083528;28;20028;-93
2022/01/22 13:10:22;;;;;;;43.67;21.53;;;;;;;;;;5082442;28;20032;-93
2022/01/22 13:12:47;;;;;;;46.47;21.80;;;;;;;;;;5079528;28;20103;-93
2022/01/22 13:15:18;;;;;;;44.30;22.03;;;;;;;;;;5081614;28;20052;-93
2022/01/22 13:17:52;;;;;;;50.40;22.13;;;;;;;;;;5076724;28;20024;-93
2022/01/22 13:20:21;;;;;;;47.73;20.87;;;;;;;;;;5069085;28;20029;-92
2022/01/22 13:22:46;;;;;;;43.03;21.40;;;;;;;;;;5080072;28;20031;-92
2022/01/22 13:25:13;;;;;;;53.40;24.13;;;;;;;;;;5088273;28;20020;-93
2022/01/22 13:27:40;;;;;;;51.27;27.10;;;;;;;;;;5081789;28;20051;-93
2022/01/22 13:30:07;;;;;;;53.47;25.33;;;;;;;;;;5082638;28;20032;-93
2022/01/22 13:35:35;;;;;;;51.83;23.97;;;;;;;;;;5083572;28;20020;-93
2022/01/22 13:49:12;;;;;;;44.20;21.03;;;;;;;;;;5071503;28;20028;-92
2022/01/22 13:51:38;;;;;;;49.57;23.30;;;;;;;;;;5086881;28;20016;-92
2022/01/22 13:54:03;;;;;;;45.83;23.03;;;;;;;;;;5087717;28;20054;-92
2022/01/22 13:57:04;;;;;;;48.23;20.77;;;;;;;;;;5086935;28;20024;-92
2022/01/22 13:59:31;;;;;;;48.40;22.13;;;;;;;;;;4991036;28;20018;-93
2022/01/22 14:02:09;;;;;;;46.70;23.13;;;;;;;;;;5067952;28;20052;-92
2022/01/22 14:04:46;;;;;;;49.57;21.43;;;;;;;;;;5087869;28;20001;-92
2022/01/22 14:07:21;;;;;;;52.27;21.20;;;;;;;;;;5087322;28;20020;-92
2022/01/22 14:09:55;;;;;;;43.83;20.07;;;;;;;;;;5087194;28;20020;-93
2022/01/22 14:12:20;;;;;;;44.37;21.73;;;;;;;;;;5088050;28;20028;-93
2022/01/22 14:14:56;;;;;;;41.77;21.60;;;;;;;;;;5081946;28;20021;-93
2022/01/22 14:17:24;;;;;;;40.97;20.10;;;;;;;;;;5072429;28;20013;-94
2022/01/22 14:19:59;;;;;;;46.23;21.70;;;;;;;;;;5089394;28;20025;-93
2022/01/22 14:22:24;;;;;;;46.53;20.17;;;;;;;;;;5089080;28;20016;-92
2022/01/22 14:24:49;;;;;;;42.00;20.30;;;;;;;;;;5083760;28;20019;-93
2022/01/22 14:27:20;;;;;;;46.83;19.60;;;;;;;;;;5085017;28;20021;-92
2022/01/22 14:29:47;;;;;;;38.50;20.63;;;;;;;;;;5082636;28;20036;-93
2022/01/22 14:32:16;;;;;;;44.63;21.23;;;;;;;;;;5083335;28;20040;-93
2022/01/22 14:34:45;;;;;;;46.90;22.20;;;;;;;;;;5081436;28;20009;-93
2022/01/22 14:37:23;;;;;;;44.37;20.80;;;;;;;;;;5066058;28;20080;-93
2022/01/22 14:45:23;;;;;;;49.93;22.97;;;;;;;;;;5078676;28;20027;-93
2022/01/22 14:47:53;;;;;;;48.37;22.57;;;;;;;;;;5088522;28;20087;-92
2022/01/22 14:50:19;;;;;;;49.07;24.17;;;;;;;;;;5088580;28;20013;-92
2022/01/22 14:52:47;;;;;;;53.53;25.13;;;;;;;;;;5090078;28;20024;-92
2022/01/22 14:55:12;;;;;;;52.90;23.93;;;;;;;;;;5088043;28;20024;-93
2022/01/22 14:57:38;;;;;;;48.00;23.23;;;;;;;;;;5078222;28;20092;-93
2022/01/22 15:00:07;;;;;;;58.50;26.60;;;;;;;;;;5069954;28;20475;-92
2022/01/22 15:02:33;;;;;;;58.00;24.90;;;;;;;;;;5069406;28;20029;-92
2022/01/22 15:04:58;;;;;;;49.73;23.33;;;;;;;;;;5066522;28;20102;-93
2022/01/22 15:07:23;;;;;;;52.93;25.13;;;;;;;;;;5060392;28;20480;-93
2022/01/22 15:09:49;;;;;;;51.40;23.53;;;;;;;;;;5065939;28;20116;-92
2022/01/22 15:12:16;;;;;;;48.07;23.00;;;;;;;;;;5084128;28;20112;-92
2022/01/22 15:14:42;;;;;;;49.83;24.13;;;;;;;;;;5085310;28;20017;-93
2022/01/22 15:19:33;;;;;;;55.03;24.90;;;;;;;;;;5085866;28;20037;-93
2022/01/22 15:21:59;;;;;;;56.63;25.07;;;;;;;;;;5084556;28;20052;-93
2022/01/22 15:24:25;;;;;;;52.67;23.30;;;;;;;;;;5085286;28;20090;-94
2022/01/22 15:26:51;;;;;;;58.37;25.53;;;;;;;;;;5082929;28;20020;-92
2022/01/22 15:29:24;;;;;;;56.87;26.87;;;;;;;;;;5085416;28;20027;-92
2022/01/22 15:36:55;;;;;;;49.53;23.67;;;;;;;;;;5082817;28;20021;-92
2022/01/22 15:39:21;;;;;;;58.20;26.33;;;;;;;;;;5082131;28;20023;-91
2022/01/22 15:41:47;;;;;;;60.37;26.77;;;;;;;;;;5081616;28;20017;-91
2022/01/22 15:44:12;;;;;;;53.00;26.33;;;;;;;;;;5082822;28;20020;-91
2022/01/22 15:46:41;;;;;;;59.87;29.73;;;;;;;;;;5084928;28;20079;-92
2022/01/22 15:49:07;;;;;;;52.50;28.23;;;;;;;;;;5079538;28;20025;-92
2022/01/22 15:51:32;;;;;;;56.83;26.43;;;;;;;;;;5078686;28;20051;-92
2022/01/22 15:53:57;;;;;;;64.73;27.23;;;;;;;;;;5074233;28;20053;-92
2022/01/22 15:56:23;;;;;;;58.97;26.83;;;;;;;;;;5082883;28;20025;-92
2022/01/22 15:58:48;;;;;;;57.40;26.00;;;;;;;;;;5075258;28;20040;-92
2022/01/22 16:01:14;;;;;;;57.23;28.10;;;;;;;;;;5076853;28;20084;-92
2022/01/22 16:03:43;;;;;;;60.37;25.47;;;;;;;;;;5059661;28;20115;-92
2022/01/22 16:06:18;;;;;;;56.57;27.47;;;;;;;;;;5058019;28;20021;-92
2022/01/22 16:08:44;;;;;;;63.30;26.87;;;;;;;;;;5075752;28;20027;-92
2022/01/22 16:11:09;;;;;;;58.03;26.93;;;;;;;;;;5061321;28;20084;-92
2022/01/22 16:13:34;;;;;;;62.00;28.03;;;;;;;;;;5075611;28;20024;-93
2022/01/22 16:16:01;;;;;;;53.33;27.50;;;;;;;;;;5076713;28;20023;-92
2022/01/22 16:18:26;;;;;;;62.00;29.73;;;;;;;;;;5062684;28;20023;-92
2022/01/22 16:20:51;;;;;;;59.57;29.47;;;;;;;;;;5055517;28;20036;-92
2022/01/22 16:23:16;;;;;;;62.77;28.03;;;;;;;;;;5055599;28;20489;-92
2022/01/22 16:25:42;;;;;;;59.37;27.17;;;;;;;;;;5055684;28;20033;-93
2022/01/22 16:28:07;;;;;;;62.70;28.13;;;;;;;;;;5072700;28;20038;-93